Terminal Aerodrome Forecast
Issued by NWS Corpus Christi, TX

Current Version | Previous Version | Text Only | Print | Product List | Glossary Off
Versions: 1 2 3 4 5 6 7 8 9 10 11 12 13 14 15 16 17 18 19

000
FTUS44 KCRP 171100
TAFVCT
TAF
KVCT 171130Z 1712/1812 VRB03KT 5SM BR SCT015 OVC100
      TEMPO 1712/1713 2SM -SHRA BR BKN015
     FM171400 17009KT P6SM VCTS SCT025CB BKN035
      TEMPO 1714/1718 5SM TSRA SCT025CB
     FM171800 17012KT P6SM VCTS BKN035CB
      TEMPO 1718/1722 5SM TSRA BKN030CB
     FM180000 16008KT P6SM FEW015 SCT100=

USA.gov is the U.S. government's official web portal to all federal, state and local government web resources and services.